Westview Chinook — VG3278 — position and weather

sailwx.info

Track history (hours):
 
Tides and Currents Weather Stations Pressure Air Temp Water Temp Dewpoint Dewpoint Depression Visibility Wind Speed Wind Dir Waves Ship Positions

Westview Chinook

Last reported at 2016-Aug-31 03:33 UTC. Time now 2016-Aug-31 04:18 UTC.
Position N 49°18' W 123°21'.

Length 15 m.

Type: Tug. MMSI: 316005622.

Date/timePositionNaut miles runAvg speedWind from/ knotsBaromVisibWave heightAir tempDewpointWater temp
2016-Aug-31 03:33N 49°18' W 123°21'9 8.5
2016-Aug-31 02:33N 49°25' W 123°27'6 5.9
2016-Aug-31 01:33N 49°31' W 123°29'6 6.2
2016-Aug-31 00:33N 49°25' W 123°26'6 6.4
2016-Aug-30 23:33N 49°19' W 123°26'7 6.8
2016-Aug-30 22:33N 49°12' W 123°23'7 6.7
2016-Aug-30 21:33N 49°06' W 123°18'6 5.9
2016-Aug-30 20:33N 49°07' W 123°09'8 7.7
2016-Aug-30 19:33N 49°09' W 122°58'4 4.1
2016-Aug-30 18:33N 49°12' W 122°54'6 5.9
2016-Aug-30 17:33N 49°12' W 123°03'4 4.0
2016-Aug-30 16:33N 49°12' W 123°09'5 5.3
2016-Aug-30 15:33N 49°15' W 123°16'7 6.7
2016-Aug-30 14:33N 49°19' W 123°24'6 6.3
2016-Aug-30 13:33N 49°25' W 123°27'5 5.2
2016-Aug-30 12:33N 49°30' W 123°30'0 0.0
2016-Aug-30 11:33N 49°30' W 123°30'0 0.0
2016-Aug-30 10:33N 49°30' W 123°30'0 0.2
2016-Aug-30 09:33N 49°30' W 123°29'3 2.8
2016-Aug-30 08:33N 49°28' W 123°28'7 7.5
2016-Aug-30 07:33N 49°20' W 123°26'8 8.4
2016-Aug-30 06:33N 49°15' W 123°16'8 8.1
2016-Aug-30 05:33N 49°12' W 123°04'5 4.5
2016-Aug-30 04:33N 49°11' W 122°58'0 0.1
2016-Aug-30 03:33N 49°11' W 122°57'6 5.6
2016-Aug-30 02:33N 49°12' W 123°06'2 2.5
2016-Aug-30 01:34N 49°13' W 123°10'3 3.0
2016-Aug-30 00:33N 49°14' W 123°14'3 3.2
2016-Aug-29 23:33N 49°16' W 123°18'4 3.8
2016-Aug-29 22:33N 49°18' W 123°22'4 3.8
2016-Aug-29 21:33N 49°20' W 123°27'5 4.5
2016-Aug-29 20:31N 49°22' W 123°34'8 4.1
2016-Aug-29 18:33N 49°27' W 123°44'2 1.6
2016-Aug-29 17:33N 49°28' W 123°45'0 0.0
2016-Aug-29 16:33N 49°28' W 123°45'0 0.0
2016-Aug-29 15:33N 49°28' W 123°45'5 5.2
2016-Aug-29 14:33N 49°24' W 123°40'5 5.1
2016-Aug-29 13:33N 49°28' W 123°45'5 5.2
2016-Aug-29 12:33N 49°23' W 123°41'7 7.5
2016-Aug-29 11:33N 49°18' W 123°34'8 7.6
2016-Aug-29 10:33N 49°12' W 123°27'8 7.6
2016-Aug-29 09:33N 49°06' W 123°19'8 7.6
2016-Aug-29 08:33N 49°07' W 123°08'7 6.8
2016-Aug-29 07:33N 49°10' W 122°58'4 4.5
2016-Aug-29 06:33N 49°07' W 123°05'6 5.6
2016-Aug-29 05:33N 49°08' W 123°13'5 4.6
2016-Aug-29 04:33N 49°06' W 123°19'7 6.7
2016-Aug-29 03:33N 49°08' W 123°29'7 6.7
2016-Aug-29 02:33N 49°11' W 123°38'6 6.2
2016-Aug-29 01:33N 49°13' W 123°47'5 5.3
2016-Aug-29 00:33N 49°09' W 123°53'5 5.3
2016-Aug-28 23:33N 49°13' W 123°48'10 9.7
2016-Aug-28 22:33N 49°14' W 123°33'9 9.4
2016-Aug-28 21:33N 49°16' W 123°19'3 3.4
2016-Aug-28 20:34N 49°14' W 123°14'4 3.7
2016-Aug-28 19:33N 49°12' W 123°09'3 3.2
2016-Aug-28 18:33N 49°12' W 123°04'0 0.0
2016-Aug-28 17:34N 49°12' W 123°04'6 5.6
2016-Aug-28 16:33N 49°12' W 122°56'1 0.6
2016-Aug-28 15:33N 49°12' W 122°57'5 4.7
2016-Aug-28 14:33N 49°12' W 123°04'3 2.8
2016-Aug-28 13:33N 49°12' W 123°08'0 0.0
2016-Aug-28 12:33N 49°12' W 123°08'7 7.0
2016-Aug-28 11:33N 49°16' W 123°17'10 9.6
2016-Aug-28 10:33N 49°16' W 123°32'1010.1
2016-Aug-28 09:33N 49°14' W 123°47'6 6.0
2016-Aug-28 08:33N 49°09' W 123°53'6 5.8
2016-Aug-28 07:33N 49°13' W 123°47'8 8.3
2016-Aug-28 06:33N 49°10' W 123°35'8 8.1
2016-Aug-28 05:33N 49°07' W 123°24'9 8.8
2016-Aug-28 04:33N 49°07' W 123°10'7 7.0
2016-Aug-28 03:33N 49°09' W 123°00'9 9.4
2016-Aug-28 02:33N 49°13' W 122°47'9 9.1
2016-Aug-28 01:33N 49°11' W 122°33'9 8.7
2016-Aug-28 00:31N 49°08' W 122°20'0 0.2
2016-Aug-27 23:29N 49°07' W 122°20'7 7.1
2016-Aug-27 22:32N 49°10' W 122°29'7 7.0
2016-Aug-27 21:33N 49°12' W 122°40'8 7.9
2016-Aug-27 20:33N 49°13' W 122°52'7 6.7
2016-Aug-27 19:33N 49°12' W 123°02'7 7.4
2016-Aug-27 18:33N 49°13' W 123°13'7 7.3
2016-Aug-27 17:33N 49°18' W 123°22'7 6.7
2016-Aug-27 16:33N 49°24' W 123°25'8 7.6
2016-Aug-27 15:33N 49°31' W 123°29'3 3.4
2016-Aug-27 14:33N 49°32' W 123°24'8 7.9
2016-Aug-27 13:33N 49°26' W 123°17'5 5.0
2016-Aug-27 12:33N 49°21' W 123°18'9 9.2
2016-Aug-27 11:33N 49°11' W 123°19'6 5.7
2016-Aug-27 10:33N 49°08' W 123°13'7 7.0
2016-Aug-27 09:33N 49°09' W 123°02'4 4.1
2016-Aug-27 08:33N 49°07' W 123°07'5 5.2
2016-Aug-27 07:33N 49°07' W 123°15'5 5.0
2016-Aug-27 06:33N 49°07' W 123°23'13 6.5
2016-Aug-27 04:33N 49°11' W 123°41'6 6.0
2016-Aug-27 03:33N 49°12' W 123°50'3 3.5
2016-Aug-27 02:34N 49°09' W 123°53'8 8.0
2016-Aug-27 01:33N 49°14' W 123°42'9 9.3
2016-Aug-27 00:33N 49°15' W 123°28'9 8.9
2016-Aug-26 23:33N 49°14' W 123°14'8 7.9
2016-Aug-26 22:34N 49°12' W 123°03'0 0.0
2016-Aug-26 21:34N 49°12' W 123°03'0 0.0
2016-Aug-26 20:34N 49°12' W 123°03'0 0.0
2016-Aug-26 19:34N 49°12' W 123°03'0 0.0
2016-Aug-26 18:34N 49°12' W 123°03'0 0.0
2016-Aug-26 17:33N 49°12' W 123°03'0 0.0
2016-Aug-26 16:33N 49°12' W 123°03'0 0.0
2016-Aug-26 15:33N 49°12' W 123°03'0 0.0
2016-Aug-26 14:34N 49°12' W 123°03'0 0.0
2016-Aug-26 13:33N 49°12' W 123°03'0 0.0
2016-Aug-26 12:33N 49°12' W 123°03'0 0.0
2016-Aug-26 11:34N 49°12' W 123°03'0 0.0
2016-Aug-26 10:34N 49°12' W 123°03'0 0.0
2016-Aug-26 09:34N 49°12' W 123°03'0 0.0
2016-Aug-26 08:34N 49°12' W 123°03'0 0.0
2016-Aug-26 07:33N 49°12' W 123°03'1 1.0
2016-Aug-26 06:33N 49°12' W 123°04'9 4.7
2016-Aug-26 04:33N 49°14' W 123°18'8 7.8
2016-Aug-26 03:33N 49°07' W 123°20'7 7.2
2016-Aug-26 02:33N 49°00' W 123°15'6 6.1
2016-Aug-26 01:33N 48°54' W 123°15'6 5.5
2016-Aug-26 00:32N 48°50' W 123°20'6 5.8
2016-Aug-25 23:33N 48°44' W 123°18'1 0.9
2016-Aug-25 22:32N 48°43' W 123°17'1 0.4
2016-Aug-25 21:17N 48°44' W 123°17'1 1.4
2016-Aug-25 20:25N 48°45' W 123°18'3 3.8
2016-Aug-25 19:33N 48°48' W 123°20'4 3.8
2016-Aug-25 18:33N 48°52' W 123°20'3 2.9
2016-Aug-25 17:33N 48°54' W 123°18'3 2.8
2016-Aug-25 16:34N 48°57' W 123°20'3 3.0
2016-Aug-25 15:33N 49°00' W 123°20'5 5.3
2016-Aug-25 14:34N 49°05' W 123°20'7 6.7
2016-Aug-25 13:33N 49°07' W 123°10'7 6.9
2016-Aug-25 12:33N 49°09' W 122°60'1 0.7
2016-Aug-25 11:33N 49°09' W 122°59'0 0.2
2016-Aug-25 10:33N 49°10' W 122°59'0 0.0
2016-Aug-25 09:33N 49°10' W 122°59'0 0.0
2016-Aug-25 08:33N 49°10' W 122°59'0 0.0
2016-Aug-25 07:33N 49°10' W 122°59'3 2.7
2016-Aug-25 06:33N 49°09' W 123°03'12 5.8
2016-Aug-25 04:33N 49°06' W 123°20'7 6.6
2016-Aug-25 03:33N 49°08' W 123°29'7 6.7
2016-Aug-25 02:33N 49°11' W 123°39'7 6.5
2016-Aug-25 01:33N 49°13' W 123°48'5 4.8
2016-Aug-25 00:33N 49°09' W 123°53'6 5.4
2016-Aug-24 23:31N 49°13' W 123°47'9 9.1
2016-Aug-24 22:33N 49°09' W 123°35'9 9.3
2016-Aug-24 21:33N 49°03' W 123°24'3 3.4
2016-Aug-24 20:33N 49°07' W 123°23'6 6.4
2016-Aug-24 19:33N 49°12' W 123°18'3 3.3
2016-Aug-24 18:33N 49°15' W 123°16'0 0.0
2016-Aug-24 17:33N 49°15' W 123°15'0 0.0
2016-Aug-24 16:33N 49°15' W 123°15'1 1.2
2016-Aug-24 15:33N 49°14' W 123°14'6 6.1
2016-Aug-24 14:33N 49°12' W 123°06'2 1.7
2016-Aug-24 13:33N 49°12' W 123°08'0 0.0
2016-Aug-24 12:33N 49°12' W 123°08'1 1.2
2016-Aug-24 11:27N 49°13' W 123°10'6 6.9
2016-Aug-24 10:34N 49°16' W 123°18'1010.0
2016-Aug-24 09:34N 49°14' W 123°33'1110.5
2016-Aug-24 08:33N 49°13' W 123°49'4 3.7
2016-Aug-24 07:34N 49°10' W 123°53'6 6.4
2016-Aug-24 06:34N 49°14' W 123°45'15 7.4
2016-Aug-24 04:33N 49°12' W 123°22'8 8.0
2016-Aug-24 03:34N 49°20' W 123°26'10 9.7
2016-Aug-24 02:32N 49°30' W 123°28'1 0.9
2016-Aug-24 01:34N 49°29' W 123°28'6 5.8
2016-Aug-24 00:33N 49°23' W 123°26'6 6.1
2016-Aug-23 23:33N 49°22' W 123°35'6 5.8
2016-Aug-23 22:33N 49°24' W 123°44'6 5.9
2016-Aug-23 21:34N 49°26' W 123°52'6 6.3
2016-Aug-23 20:34N 49°28' W 124°01'7 6.7
2016-Aug-23 19:33N 49°33' W 124°08'7 6.7
2016-Aug-23 18:33N 49°38' W 124°15'7 6.7
2016-Aug-23 17:34N 49°43' W 124°22'7 6.9
2016-Aug-23 16:34N 49°47' W 124°31'3 2.7
2016-Aug-23 15:34N 49°48' W 124°35'4 4.3
2016-Aug-23 14:33N 49°45' W 124°30'0 0.1
2016-Aug-23 13:34N 49°45' W 124°30'1 0.6
2016-Aug-23 12:34N 49°44' W 124°29'3 2.9
2016-Aug-23 11:34N 49°44' W 124°25'8 7.7
2016-Aug-23 10:34N 49°39' W 124°16'8 7.8
2016-Aug-23 09:34N 49°33' W 124°08'8 7.8
2016-Aug-23 08:33N 49°27' W 124°00'8 8.0
2016-Aug-23 07:33N 49°22' W 123°51'8 7.6
2016-Aug-23 06:33N 49°18' W 123°42'7 7.3
2016-Aug-23 05:34N 49°13' W 123°33'8 7.6
2016-Aug-23 04:33N 49°08' W 123°24'6 6.3
2016-Aug-23 03:34N 49°08' W 123°14'7 6.7
2016-Aug-23 02:34N 49°08' W 123°04'4 3.9
2016-Aug-23 01:34N 49°10' W 122°58'9 9.1
2016-Aug-23 00:34N 49°14' W 122°46'0 0.2
2016-Aug-22 23:33N 49°14' W 122°46'0 0.0
2016-Aug-22 22:33N 49°14' W 122°46'0 0.0
2016-Aug-22 21:34N 49°14' W 122°46'0 0.0
2016-Aug-22 20:33N 49°14' W 122°46'0 0.0
2016-Aug-22 19:33N 49°14' W 122°46'0 0.0
2016-Aug-22 18:34N 49°14' W 122°46'0 0.0
2016-Aug-22 17:33N 49°14' W 122°46'0 0.0
2016-Aug-22 16:33N 49°14' W 122°46'0 0.0
2016-Aug-22 15:33N 49°14' W 122°46'0 0.0
2016-Aug-22 14:34N 49°14' W 122°46'0 0.0
2016-Aug-22 13:34N 49°14' W 122°46'0 0.0
2016-Aug-22 12:33N 49°14' W 122°46'0 0.0
2016-Aug-22 11:33N 49°14' W 122°46'0 0.0
2016-Aug-22 10:34N 49°14' W 122°46'0 0.0
2016-Aug-22 09:33N 49°14' W 122°46'0 0.0
2016-Aug-22 08:33N 49°14' W 122°46'0 0.0
2016-Aug-22 07:33N 49°14' W 122°46'0 0.0
2016-Aug-22 06:34N 49°14' W 122°46'0 0.0
2016-Aug-22 05:33N 49°14' W 122°46'0 0.0
2016-Aug-22 04:33N 49°14' W 122°46'0 0.0
2016-Aug-22 03:33N 49°14' W 122°46'0 0.0
2016-Aug-22 02:33N 49°14' W 122°46'0 0.0
2016-Aug-22 01:33N 49°14' W 122°46'0 0.0
2016-Aug-22 00:33N 49°14' W 122°46'0 0.0
2016-Aug-21 23:33N 49°14' W 122°46'0 0.0
2016-Aug-21 22:33N 49°14' W 122°46'0 0.0
2016-Aug-21 21:33N 49°14' W 122°46'0 0.0
2016-Aug-21 20:33N 49°14' W 122°46'0 0.0
2016-Aug-21 19:33N 49°14' W 122°46'0 0.0
2016-Aug-21 18:33N 49°14' W 122°46'0 0.0
2016-Aug-21 17:33N 49°14' W 122°46'0 0.0
2016-Aug-21 16:33N 49°14' W 122°46'0 0.0
2016-Aug-21 15:33N 49°14' W 122°46'0 0.0
2016-Aug-21 14:34N 49°14' W 122°46'0 0.0
2016-Aug-21 13:34N 49°14' W 122°46'0 0.0
2016-Aug-21 12:33N 49°14' W 122°46'0 0.0
2016-Aug-21 11:33N 49°14' W 122°46'0 0.0
2016-Aug-21 10:33N 49°14' W 122°46'2 2.3
2016-Aug-21 09:33N 49°13' W 122°49'6 5.7
2016-Aug-21 08:33N 49°11' W 122°58'2 1.8
2016-Aug-21 07:33N 49°11' W 122°55'6 5.7
2016-Aug-21 06:33N 49°12' W 123°03'8 7.5
2016-Aug-21 05:33N 49°14' W 123°15'2 1.7
2016-Aug-21 04:33N 49°15' W 123°17'8 7.5
2016-Aug-21 03:33N 49°12' W 123°06'  
Track history (hours):
 
Tides and Currents Weather Stations Pressure Air Temp Water Temp Dewpoint Dewpoint Depression Visibility Wind Speed Wind Dir Waves Ship Positions

Westview Chinook

Last reported at 2016-Aug-31 03:33 UTC. Time now 2016-Aug-31 04:18 UTC.
Position N 49°18' W 123°21'.

Length 15 m.

Type: Tug. MMSI: 316005622.

Date/timePositionNaut miles runAvg speedWind from/ knotsBaromVisibWave heightAir tempDewpointWater temp
2016-Aug-31 03:33N 49°18' W 123°21'9 8.5
2016-Aug-31 02:33N 49°25' W 123°27'6 5.9
2016-Aug-31 01:33N 49°31' W 123°29'6 6.2
2016-Aug-31 00:33N 49°25' W 123°26'6 6.4
2016-Aug-30 23:33N 49°19' W 123°26'7 6.8
2016-Aug-30 22:33N 49°12' W 123°23'7 6.7
2016-Aug-30 21:33N 49°06' W 123°18'6 5.9
2016-Aug-30 20:33N 49°07' W 123°09'8 7.7
2016-Aug-30 19:33N 49°09' W 122°58'4 4.1
2016-Aug-30 18:33N 49°12' W 122°54'6 5.9
2016-Aug-30 17:33N 49°12' W 123°03'4 4.0
2016-Aug-30 16:33N 49°12' W 123°09'5 5.3
2016-Aug-30 15:33N 49°15' W 123°16'7 6.7
2016-Aug-30 14:33N 49°19' W 123°24'6 6.3
2016-Aug-30 13:33N 49°25' W 123°27'5 5.2
2016-Aug-30 12:33N 49°30' W 123°30'0 0.0
2016-Aug-30 11:33N 49°30' W 123°30'0 0.0
2016-Aug-30 10:33N 49°30' W 123°30'0 0.2
2016-Aug-30 09:33N 49°30' W 123°29'3 2.8
2016-Aug-30 08:33N 49°28' W 123°28'7 7.5
2016-Aug-30 07:33N 49°20' W 123°26'8 8.4
2016-Aug-30 06:33N 49°15' W 123°16'8 8.1
2016-Aug-30 05:33N 49°12' W 123°04'5 4.5
2016-Aug-30 04:33N 49°11' W 122°58'0 0.1
2016-Aug-30 03:33N 49°11' W 122°57'6 5.6
2016-Aug-30 02:33N 49°12' W 123°06'2 2.5
2016-Aug-30 01:34N 49°13' W 123°10'3 3.0
2016-Aug-30 00:33N 49°14' W 123°14'3 3.2
2016-Aug-29 23:33N 49°16' W 123°18'4 3.8
2016-Aug-29 22:33N 49°18' W 123°22'4 3.8
2016-Aug-29 21:33N 49°20' W 123°27'5 4.5
2016-Aug-29 20:31N 49°22' W 123°34'8 4.1
2016-Aug-29 18:33N 49°27' W 123°44'2 1.6
2016-Aug-29 17:33N 49°28' W 123°45'0 0.0
2016-Aug-29 16:33N 49°28' W 123°45'0 0.0
2016-Aug-29 15:33N 49°28' W 123°45'5 5.2
2016-Aug-29 14:33N 49°24' W 123°40'5 5.1
2016-Aug-29 13:33N 49°28' W 123°45'5 5.2
2016-Aug-29 12:33N 49°23' W 123°41'7 7.5
2016-Aug-29 11:33N 49°18' W 123°34'8 7.6
2016-Aug-29 10:33N 49°12' W 123°27'8 7.6
2016-Aug-29 09:33N 49°06' W 123°19'8 7.6
2016-Aug-29 08:33N 49°07' W 123°08'7 6.8
2016-Aug-29 07:33N 49°10' W 122°58'4 4.5
2016-Aug-29 06:33N 49°07' W 123°05'6 5.6
2016-Aug-29 05:33N 49°08' W 123°13'5 4.6
2016-Aug-29 04:33N 49°06' W 123°19'7 6.7
2016-Aug-29 03:33N 49°08' W 123°29'7 6.7
2016-Aug-29 02:33N 49°11' W 123°38'6 6.2
2016-Aug-29 01:33N 49°13' W 123°47'5 5.3
2016-Aug-29 00:33N 49°09' W 123°53'5 5.3
2016-Aug-28 23:33N 49°13' W 123°48'10 9.7
2016-Aug-28 22:33N 49°14' W 123°33'9 9.4
2016-Aug-28 21:33N 49°16' W 123°19'3 3.4
2016-Aug-28 20:34N 49°14' W 123°14'4 3.7
2016-Aug-28 19:33N 49°12' W 123°09'3 3.2
2016-Aug-28 18:33N 49°12' W 123°04'0 0.0
2016-Aug-28 17:34N 49°12' W 123°04'6 5.6
2016-Aug-28 16:33N 49°12' W 122°56'1 0.6
2016-Aug-28 15:33N 49°12' W 122°57'5 4.7
2016-Aug-28 14:33N 49°12' W 123°04'3 2.8
2016-Aug-28 13:33N 49°12' W 123°08'0 0.0
2016-Aug-28 12:33N 49°12' W 123°08'7 7.0
2016-Aug-28 11:33N 49°16' W 123°17'10 9.6
2016-Aug-28 10:33N 49°16' W 123°32'1010.1
2016-Aug-28 09:33N 49°14' W 123°47'6 6.0
2016-Aug-28 08:33N 49°09' W 123°53'6 5.8
2016-Aug-28 07:33N 49°13' W 123°47'8 8.3
2016-Aug-28 06:33N 49°10' W 123°35'8 8.1
2016-Aug-28 05:33N 49°07' W 123°24'9 8.8
2016-Aug-28 04:33N 49°07' W 123°10'7 7.0
2016-Aug-28 03:33N 49°09' W 123°00'9 9.4
2016-Aug-28 02:33N 49°13' W 122°47'9 9.1
2016-Aug-28 01:33N 49°11' W 122°33'9 8.7
2016-Aug-28 00:31N 49°08' W 122°20'0 0.2
2016-Aug-27 23:29N 49°07' W 122°20'7 7.1
2016-Aug-27 22:32N 49°10' W 122°29'7 7.0
2016-Aug-27 21:33N 49°12' W 122°40'8 7.9
2016-Aug-27 20:33N 49°13' W 122°52'7 6.7
2016-Aug-27 19:33N 49°12' W 123°02'7 7.4
2016-Aug-27 18:33N 49°13' W 123°13'7 7.3
2016-Aug-27 17:33N 49°18' W 123°22'7 6.7
2016-Aug-27 16:33N 49°24' W 123°25'8 7.6
2016-Aug-27 15:33N 49°31' W 123°29'3 3.4
2016-Aug-27 14:33N 49°32' W 123°24'8 7.9
2016-Aug-27 13:33N 49°26' W 123°17'5 5.0
2016-Aug-27 12:33N 49°21' W 123°18'9 9.2
2016-Aug-27 11:33N 49°11' W 123°19'6 5.7
2016-Aug-27 10:33N 49°08' W 123°13'7 7.0
2016-Aug-27 09:33N 49°09' W 123°02'4 4.1
2016-Aug-27 08:33N 49°07' W 123°07'5 5.2
2016-Aug-27 07:33N 49°07' W 123°15'5 5.0
2016-Aug-27 06:33N 49°07' W 123°23'13 6.5
2016-Aug-27 04:33N 49°11' W 123°41'6 6.0
2016-Aug-27 03:33N 49°12' W 123°50'3 3.5
2016-Aug-27 02:34N 49°09' W 123°53'8 8.0
2016-Aug-27 01:33N 49°14' W 123°42'9 9.3
2016-Aug-27 00:33N 49°15' W 123°28'9 8.9
2016-Aug-26 23:33N 49°14' W 123°14'8 7.9
2016-Aug-26 22:34N 49°12' W 123°03'0 0.0
2016-Aug-26 21:34N 49°12' W 123°03'0 0.0
2016-Aug-26 20:34N 49°12' W 123°03'0 0.0
2016-Aug-26 19:34N 49°12' W 123°03'0 0.0
2016-Aug-26 18:34N 49°12' W 123°03'0 0.0
2016-Aug-26 17:33N 49°12' W 123°03'0 0.0
2016-Aug-26 16:33N 49°12' W 123°03'0 0.0
2016-Aug-26 15:33N 49°12' W 123°03'0 0.0
2016-Aug-26 14:34N 49°12' W 123°03'0 0.0
2016-Aug-26 13:33N 49°12' W 123°03'0 0.0
2016-Aug-26 12:33N 49°12' W 123°03'0 0.0
2016-Aug-26 11:34N 49°12' W 123°03'0 0.0
2016-Aug-26 10:34N 49°12' W 123°03'0 0.0
2016-Aug-26 09:34N 49°12' W 123°03'0 0.0
2016-Aug-26 08:34N 49°12' W 123°03'0 0.0
2016-Aug-26 07:33N 49°12' W 123°03'1 1.0
2016-Aug-26 06:33N 49°12' W 123°04'9 4.7
2016-Aug-26 04:33N 49°14' W 123°18'8 7.8
2016-Aug-26 03:33N 49°07' W 123°20'7 7.2
2016-Aug-26 02:33N 49°00' W 123°15'6 6.1
2016-Aug-26 01:33N 48°54' W 123°15'6 5.5
2016-Aug-26 00:32N 48°50' W 123°20'6 5.8
2016-Aug-25 23:33N 48°44' W 123°18'1 0.9
2016-Aug-25 22:32N 48°43' W 123°17'1 0.4
2016-Aug-25 21:17N 48°44' W 123°17'1 1.4
2016-Aug-25 20:25N 48°45' W 123°18'3 3.8
2016-Aug-25 19:33N 48°48' W 123°20'4 3.8
2016-Aug-25 18:33N 48°52' W 123°20'3 2.9
2016-Aug-25 17:33N 48°54' W 123°18'3 2.8
2016-Aug-25 16:34N 48°57' W 123°20'3 3.0
2016-Aug-25 15:33N 49°00' W 123°20'5 5.3
2016-Aug-25 14:34N 49°05' W 123°20'7 6.7
2016-Aug-25 13:33N 49°07' W 123°10'7 6.9
2016-Aug-25 12:33N 49°09' W 122°60'1 0.7
2016-Aug-25 11:33N 49°09' W 122°59'0 0.2
2016-Aug-25 10:33N 49°10' W 122°59'0 0.0
2016-Aug-25 09:33N 49°10' W 122°59'0 0.0
2016-Aug-25 08:33N 49°10' W 122°59'0 0.0
2016-Aug-25 07:33N 49°10' W 122°59'3 2.7
2016-Aug-25 06:33N 49°09' W 123°03'12 5.8
2016-Aug-25 04:33N 49°06' W 123°20'7 6.6
2016-Aug-25 03:33N 49°08' W 123°29'7 6.7
2016-Aug-25 02:33N 49°11' W 123°39'7 6.5
2016-Aug-25 01:33N 49°13' W 123°48'5 4.8
2016-Aug-25 00:33N 49°09' W 123°53'6 5.4
2016-Aug-24 23:31N 49°13' W 123°47'9 9.1
2016-Aug-24 22:33N 49°09' W 123°35'9 9.3
2016-Aug-24 21:33N 49°03' W 123°24'3 3.4
2016-Aug-24 20:33N 49°07' W 123°23'6 6.4
2016-Aug-24 19:33N 49°12' W 123°18'3 3.3
2016-Aug-24 18:33N 49°15' W 123°16'0 0.0
2016-Aug-24 17:33N 49°15' W 123°15'0 0.0
2016-Aug-24 16:33N 49°15' W 123°15'1 1.2
2016-Aug-24 15:33N 49°14' W 123°14'6 6.1
2016-Aug-24 14:33N 49°12' W 123°06'2 1.7
2016-Aug-24 13:33N 49°12' W 123°08'0 0.0
2016-Aug-24 12:33N 49°12' W 123°08'1 1.2
2016-Aug-24 11:27N 49°13' W 123°10'6 6.9
2016-Aug-24 10:34N 49°16' W 123°18'1010.0
2016-Aug-24 09:34N 49°14' W 123°33'1110.5
2016-Aug-24 08:33N 49°13' W 123°49'4 3.7
2016-Aug-24 07:34N 49°10' W 123°53'6 6.4
2016-Aug-24 06:34N 49°14' W 123°45'15 7.4
2016-Aug-24 04:33N 49°12' W 123°22'8 8.0
2016-Aug-24 03:34N 49°20' W 123°26'10 9.7
2016-Aug-24 02:32N 49°30' W 123°28'1 0.9
2016-Aug-24 01:34N 49°29' W 123°28'6 5.8
2016-Aug-24 00:33N 49°23' W 123°26'6 6.1
2016-Aug-23 23:33N 49°22' W 123°35'6 5.8
2016-Aug-23 22:33N 49°24' W 123°44'6 5.9
2016-Aug-23 21:34N 49°26' W 123°52'6 6.3
2016-Aug-23 20:34N 49°28' W 124°01'7 6.7
2016-Aug-23 19:33N 49°33' W 124°08'7 6.7
2016-Aug-23 18:33N 49°38' W 124°15'7 6.7
2016-Aug-23 17:34N 49°43' W 124°22'7 6.9
2016-Aug-23 16:34N 49°47' W 124°31'3 2.7
2016-Aug-23 15:34N 49°48' W 124°35'4 4.3
2016-Aug-23 14:33N 49°45' W 124°30'0 0.1
2016-Aug-23 13:34N 49°45' W 124°30'1 0.6
2016-Aug-23 12:34N 49°44' W 124°29'3 2.9
2016-Aug-23 11:34N 49°44' W 124°25'8 7.7
2016-Aug-23 10:34N 49°39' W 124°16'8 7.8
2016-Aug-23 09:34N 49°33' W 124°08'8 7.8
2016-Aug-23 08:33N 49°27' W 124°00'8 8.0
2016-Aug-23 07:33N 49°22' W 123°51'8 7.6
2016-Aug-23 06:33N 49°18' W 123°42'7 7.3
2016-Aug-23 05:34N 49°13' W 123°33'8 7.6
2016-Aug-23 04:33N 49°08' W 123°24'6 6.3
2016-Aug-23 03:34N 49°08' W 123°14'7 6.7
2016-Aug-23 02:34N 49°08' W 123°04'4 3.9
2016-Aug-23 01:34N 49°10' W 122°58'9 9.1
2016-Aug-23 00:34N 49°14' W 122°46'0 0.2
2016-Aug-22 23:33N 49°14' W 122°46'0 0.0
2016-Aug-22 22:33N 49°14' W 122°46'0 0.0
2016-Aug-22 21:34N 49°14' W 122°46'0 0.0
2016-Aug-22 20:33N 49°14' W 122°46'0 0.0
2016-Aug-22 19:33N 49°14' W 122°46'0 0.0
2016-Aug-22 18:34N 49°14' W 122°46'0 0.0
2016-Aug-22 17:33N 49°14' W 122°46'0 0.0
2016-Aug-22 16:33N 49°14' W 122°46'0 0.0
2016-Aug-22 15:33N 49°14' W 122°46'0 0.0
2016-Aug-22 14:34N 49°14' W 122°46'0 0.0
2016-Aug-22 13:34N 49°14' W 122°46'0 0.0
2016-Aug-22 12:33N 49°14' W 122°46'0 0.0
2016-Aug-22 11:33N 49°14' W 122°46'0 0.0
2016-Aug-22 10:34N 49°14' W 122°46'0 0.0
2016-Aug-22 09:33N 49°14' W 122°46'0 0.0
2016-Aug-22 08:33N 49°14' W 122°46'0 0.0
2016-Aug-22 07:33N 49°14' W 122°46'0 0.0
2016-Aug-22 06:34N 49°14' W 122°46'0 0.0
2016-Aug-22 05:33N 49°14' W 122°46'0 0.0
2016-Aug-22 04:33N 49°14' W 122°46'0 0.0
2016-Aug-22 03:33N 49°14' W 122°46'0 0.0
2016-Aug-22 02:33N 49°14' W 122°46'0 0.0
2016-Aug-22 01:33N 49°14' W 122°46'0 0.0
2016-Aug-22 00:33N 49°14' W 122°46'0 0.0
2016-Aug-21 23:33N 49°14' W 122°46'0 0.0
2016-Aug-21 22:33N 49°14' W 122°46'0 0.0
2016-Aug-21 21:33N 49°14' W 122°46'0 0.0
2016-Aug-21 20:33N 49°14' W 122°46'0 0.0
2016-Aug-21 19:33N 49°14' W 122°46'0 0.0
2016-Aug-21 18:33N 49°14' W 122°46'0 0.0
2016-Aug-21 17:33N 49°14' W 122°46'0 0.0
2016-Aug-21 16:33N 49°14' W 122°46'0 0.0
2016-Aug-21 15:33N 49°14' W 122°46'0 0.0
2016-Aug-21 14:34N 49°14' W 122°46'0 0.0
2016-Aug-21 13:34N 49°14' W 122°46'0 0.0
2016-Aug-21 12:33N 49°14' W 122°46'0 0.0
2016-Aug-21 11:33N 49°14' W 122°46'0 0.0
2016-Aug-21 10:33N 49°14' W 122°46'2 2.3
2016-Aug-21 09:33N 49°13' W 122°49'6 5.7
2016-Aug-21 08:33N 49°11' W 122°58'2 1.8
2016-Aug-21 07:33N 49°11' W 122°55'6 5.7
2016-Aug-21 06:33N 49°12' W 123°03'8 7.5
2016-Aug-21 05:33N 49°14' W 123°15'2 1.7
2016-Aug-21 04:33N 49°15' W 123°17'8 7.5
2016-Aug-21 03:33N 49°12' W 123°06'  

Dump ship's entire track history